Weather at La Guardia Airport

Public forecast

Using degrees Fahrenheit for public forecast. Weather courtesy of forecast.io.

Current aviation weather report (METAR) for La Guardia Airport

Retrieved 2021/04/20 21:51 UTC (25 minutes ago):

KLGA 202151Z 17012KT 10SM FEW080 BKN250 21/06 A2985 RMK AO2 SLP108 T02110061

Aviation forecast (TAF) for La Guardia Airport

Retrieved 2021/04/20 18:24 UTC (4 hours ago):

TAF KLGA 201720Z 2018/2124 24012G20KT P6SM FEW250 FM202300 20008KT P6SM FEW120 FM211300 19009G16KT P6SM SCT070 FM211700 18014G23KT P6SM BKN035 FM211900 19014G24KT P6SM -SHRA OVC035 TEMPO 2119/2121 4SM -TSRA OVC035CB FM212100 27014G22KT P6SM OVC045